Time;durP1;ratioP1;P1;durP2;ratioP2;P2;SDS_P1;SDS_P2;PMS_P1;PMS_P2;Temp;Humidity;BMP_temperature;BMP_pressure;BME280_temperature;BME280_humidity;BME280_pressure;Samples;Min_cycle;Max_cycle;Signal;HPM_P1;HPM_P2
2024/01/31 00:00:47;;;;;;;24.37;14.30;;;7.30;99.90;;;;;;5062208;28;20582;-67
2024/01/31 00:03:15;;;;;;;21.57;13.60;;;7.30;99.90;;;;;;5058831;28;21017;-68
2024/01/31 00:05:44;;;;;;;23.57;12.93;;;7.30;99.90;;;;;;5068418;28;20486;-67
2024/01/31 00:08:12;;;;;;;22.03;13.40;;;7.20;99.90;;;;;;5067245;28;20449;-68
2024/01/31 00:10:40;;;;;;;21.20;14.03;;;7.30;99.90;;;;;;5081734;28;20438;-70
2024/01/31 00:13:08;;;;;;;25.63;14.43;;;7.30;99.90;;;;;;5076862;28;20456;-68
2024/01/31 00:15:36;;;;;;;19.03;13.07;;;7.40;99.90;;;;;;5064775;28;20485;-67
2024/01/31 00:18:04;;;;;;;21.23;13.27;;;7.30;99.90;;;;;;5078612;28;20445;-67
2024/01/31 00:20:33;;;;;;;21.37;13.30;;;7.30;99.90;;;;;;5056370;28;20451;-67
2024/01/31 00:23:02;;;;;;;23.30;14.37;;;7.30;99.90;;;;;;5056981;28;20448;-68
2024/01/31 00:25:30;;;;;;;19.47;12.47;;;7.40;99.90;;;;;;5067630;28;20439;-68
2024/01/31 00:27:59;;;;;;;23.10;15.00;;;7.30;99.90;;;;;;5060223;28;20601;-68
2024/01/31 00:30:27;;;;;;;22.23;14.27;;;7.30;99.90;;;;;;5061727;28;20474;-67
2024/01/31 00:32:54;;;;;;;18.93;12.50;;;7.40;99.90;;;;;;5067128;28;20438;-68
2024/01/31 00:35:22;;;;;;;23.73;13.93;;;7.30;99.90;;;;;;5067417;28;20475;-67
2024/01/31 00:37:53;;;;;;;18.13;12.00;;;7.30;99.90;;;;;;5066074;28;20444;-67
2024/01/31 00:40:22;;;;;;;19.87;14.17;;;7.30;99.90;;;;;;5071849;28;20477;-68
2024/01/31 00:42:50;;;;;;;25.53;12.47;;;7.40;99.90;;;;;;5076280;28;20453;-68
2024/01/31 00:45:18;;;;;;;24.73;13.70;;;7.50;99.90;;;;;;5062833;28;20443;-67
2024/01/31 00:47:46;;;;;;;23.13;13.07;;;7.50;99.90;;;;;;5063116;28;20592;-68
2024/01/31 00:50:14;;;;;;;21.80;12.93;;;7.50;99.90;;;;;;5064681;28;20479;-67
2024/01/31 00:52:43;;;;;;;21.43;13.37;;;7.40;99.90;;;;;;5065620;28;20506;-67
2024/01/31 00:55:11;;;;;;;20.00;12.30;;;7.40;99.90;;;;;;5065286;28;20453;-67
2024/01/31 00:57:42;;;;;;;22.97;14.27;;;7.30;99.90;;;;;;5064769;28;20500;-68
2024/01/31 01:00:11;;;;;;;20.07;13.60;;;7.30;99.90;;;;;;5064491;28;20475;-68
2024/01/31 01:02:40;;;;;;;23.47;12.73;;;7.30;99.90;;;;;;5063751;28;20443;-68
2024/01/31 01:05:09;;;;;;;22.50;13.47;;;7.30;99.90;;;;;;5064795;28;20846;-68
2024/01/31 01:07:38;;;;;;;22.40;13.67;;;7.30;99.90;;;;;;5064398;28;20482;-68
2024/01/31 01:10:10;;;;;;;19.30;12.83;;;7.20;99.90;;;;;;5064717;28;20473;-68
2024/01/31 01:12:41;;;;;;;19.33;12.30;;;7.20;99.90;;;;;;5063481;28;20460;-69
2024/01/31 01:15:10;;;;;;;22.03;14.40;;;7.20;99.90;;;;;;5064633;28;20472;-68
2024/01/31 01:17:43;;;;;;;21.97;13.50;;;7.20;99.90;;;;;;5063755;28;20508;-67
2024/01/31 01:20:13;;;;;;;25.87;15.90;;;7.20;99.90;;;;;;5064285;28;20480;-67
2024/01/31 01:22:43;;;;;;;23.00;15.17;;;7.20;99.90;;;;;;5064659;28;20458;-68
2024/01/31 01:25:11;;;;;;;23.73;13.70;;;7.30;99.90;;;;;;5064411;28;20462;-68
2024/01/31 01:27:42;;;;;;;27.00;15.53;;;7.40;99.90;;;;;;5066217;28;20464;-70
2024/01/31 01:30:12;;;;;;;23.63;14.13;;;7.40;99.90;;;;;;5069431;28;20462;-69
2024/01/31 01:32:40;;;;;;;22.33;14.03;;;7.50;99.90;;;;;;5066580;28;20934;-69
2024/01/31 01:35:08;;;;;;;24.50;15.40;;;7.50;99.90;;;;;;5068616;28;20447;-67
2024/01/31 01:37:36;;;;;;;25.87;14.67;;;7.40;99.90;;;;;;5068471;28;20479;-68
2024/01/31 01:40:05;;;;;;;24.67;14.10;;;7.40;99.90;;;;;;5070779;28;20461;-68
2024/01/31 01:42:33;;;;;;;25.30;16.27;;;7.50;99.90;;;;;;5068475;28;20445;-68
2024/01/31 01:45:02;;;;;;;27.03;15.83;;;7.40;99.90;;;;;;5068654;28;20439;-68
2024/01/31 01:47:30;;;;;;;31.23;15.93;;;7.50;99.90;;;;;;5068248;28;20503;-68
2024/01/31 01:49:58;;;;;;;28.00;16.40;;;7.40;99.90;;;;;;5068815;28;20570;-68
2024/01/31 01:52:27;;;;;;;26.80;16.00;;;7.50;99.90;;;;;;5068063;28;20458;-68
2024/01/31 01:54:55;;;;;;;26.60;15.90;;;7.50;99.90;;;;;;5068460;28;20432;-68
2024/01/31 01:57:23;;;;;;;27.37;16.20;;;7.50;99.90;;;;;;5067793;28;20565;-67
2024/01/31 01:59:52;;;;;;;27.47;16.50;;;7.50;99.90;;;;;;5067954;28;20464;-68
2024/01/31 02:02:22;;;;;;;29.67;16.80;;;7.50;99.90;;;;;;5067471;28;20446;-68
2024/01/31 02:04:50;;;;;;;23.37;15.00;;;7.50;99.90;;;;;;5068087;28;20472;-68
2024/01/31 02:07:24;;;;;;;27.30;15.93;;;7.50;99.90;;;;;;5068594;28;20447;-69
2024/01/31 02:09:52;;;;;;;26.87;16.67;;;7.60;99.90;;;;;;5068222;28;20455;-68
2024/01/31 02:12:20;;;;;;;31.93;15.83;;;7.60;99.90;;;;;;5066591;28;20542;-68
2024/01/31 02:14:48;;;;;;;26.90;15.23;;;7.50;99.90;;;;;;5067357;28;20447;-69
2024/01/31 02:17:16;;;;;;;29.73;17.43;;;7.60;99.90;;;;;;5061089;28;20870;-69
2024/01/31 02:19:45;;;;;;;29.43;15.90;;;7.60;99.90;;;;;;5066891;28;20513;-69
2024/01/31 02:22:18;;;;;;;25.07;15.57;;;7.70;99.90;;;;;;5066031;28;20800;-68
2024/01/31 02:24:46;;;;;;;25.50;15.90;;;7.50;99.90;;;;;;5064533;28;20443;-69
2024/01/31 02:27:15;;;;;;;27.40;14.60;;;7.60;99.90;;;;;;5067483;28;20933;-68
2024/01/31 02:29:43;;;;;;;32.97;16.73;;;7.60;99.90;;;;;;5066961;28;20455;-69
2024/01/31 02:32:11;;;;;;;26.50;15.10;;;7.80;99.90;;;;;;5066490;28;20808;-69
2024/01/31 02:34:39;;;;;;;26.57;15.13;;;7.70;99.90;;;;;;5065621;28;20448;-69
2024/01/31 02:37:07;;;;;;;24.23;14.17;;;7.80;99.90;;;;;;5066953;28;20977;-69
2024/01/31 02:39:37;;;;;;;23.30;14.10;;;7.70;99.90;;;;;;5065610;28;20463;-69
2024/01/31 02:42:05;;;;;;;23.20;14.00;;;7.70;99.90;;;;;;5065809;28;20431;-68
2024/01/31 02:44:33;;;;;;;25.13;16.10;;;7.60;99.90;;;;;;5067088;28;20538;-69
2024/01/31 02:47:01;;;;;;;26.43;14.90;;;7.70;99.90;;;;;;5067145;28;20447;-68
2024/01/31 02:49:29;;;;;;;24.50;16.13;;;7.70;99.90;;;;;;5066919;28;20470;-70
2024/01/31 02:51:57;;;;;;;29.27;15.17;;;7.80;99.90;;;;;;5065363;28;21005;-69
2024/01/31 02:54:25;;;;;;;26.60;15.70;;;7.80;99.90;;;;;;5066313;28;20451;-68
2024/01/31 02:56:55;;;;;;;26.90;15.97;;;7.80;99.90;;;;;;5066759;28;20514;-69
2024/01/31 02:59:23;;;;;;;28.50;14.83;;;7.80;99.90;;;;;;5067033;28;20475;-68
2024/01/31 03:01:51;;;;;;;24.97;13.53;;;7.70;99.90;;;;;;5064369;28;20444;-69
2024/01/31 03:04:19;;;;;;;25.50;13.87;;;7.80;99.90;;;;;;5067048;28;20548;-69
2024/01/31 03:06:47;;;;;;;25.90;15.03;;;7.80;99.90;;;;;;5067264;28;21055;-69
2024/01/31 03:09:17;;;;;;;26.97;15.67;;;7.80;99.90;;;;;;5067256;28;20993;-68
2024/01/31 03:11:45;;;;;;;26.07;14.40;;;7.70;99.90;;;;;;5065999;28;20447;-68
2024/01/31 03:14:14;;;;;;;27.70;16.50;;;7.70;99.90;;;;;;5068097;28;20453;-69
2024/01/31 03:16:42;;;;;;;25.27;14.77;;;7.80;99.90;;;;;;5066917;28;20580;-69
2024/01/31 03:19:10;;;;;;;22.80;14.53;;;7.70;99.90;;;;;;5066343;28;20515;-68
2024/01/31 03:21:38;;;;;;;25.50;15.00;;;7.70;99.90;;;;;;5065482;28;20947;-69
2024/01/31 03:24:06;;;;;;;28.10;14.13;;;7.70;99.90;;;;;;5059665;28;20989;-69
2024/01/31 03:26:34;;;;;;;27.07;15.13;;;7.70;99.90;;;;;;5066492;28;20472;-68
2024/01/31 03:29:02;;;;;;;28.67;15.40;;;7.70;99.90;;;;;;5065827;28;20467;-69
2024/01/31 03:31:31;;;;;;;26.40;14.27;;;7.70;99.90;;;;;;5065008;28;20524;-69
2024/01/31 03:33:59;;;;;;;24.83;13.97;;;7.80;99.90;;;;;;5064994;28;20459;-68
2024/01/31 03:36:28;;;;;;;25.40;15.40;;;7.90;99.90;;;;;;5065918;28;20556;-69
2024/01/31 03:38:58;;;;;;;22.40;13.70;;;7.80;99.90;;;;;;5065812;28;20650;-69
2024/01/31 03:41:29;;;;;;;22.60;13.20;;;7.80;99.90;;;;;;5065096;28;21074;-68
2024/01/31 03:43:57;;;;;;;25.37;13.40;;;7.80;99.90;;;;;;5065357;28;20476;-68
2024/01/31 03:46:25;;;;;;;21.07;13.50;;;7.80;99.90;;;;;;5064552;28;20468;-68
2024/01/31 03:48:54;;;;;;;21.00;12.67;;;7.80;99.90;;;;;;5066042;28;20475;-69
2024/01/31 03:51:24;;;;;;;25.23;13.50;;;7.80;99.90;;;;;;5064696;28;20474;-68
2024/01/31 03:53:52;;;;;;;23.47;14.80;;;7.80;99.90;;;;;;5065037;28;20470;-69
2024/01/31 03:56:20;;;;;;;24.37;14.10;;;7.70;99.90;;;;;;5065500;28;20561;-68
2024/01/31 03:58:48;;;;;;;24.57;13.27;;;7.70;99.90;;;;;;5066310;28;20498;-69
2024/01/31 04:01:17;;;;;;;24.27;13.43;;;7.70;99.90;;;;;;5064088;28;20581;-69
2024/01/31 04:03:47;;;;;;;23.87;14.63;;;7.80;99.90;;;;;;5064005;28;20460;-68
2024/01/31 04:06:17;;;;;;;21.33;13.67;;;7.70;99.90;;;;;;5065071;28;20506;-69
2024/01/31 04:08:45;;;;;;;19.73;12.87;;;7.80;99.90;;;;;;5062120;28;20469;-69
2024/01/31 04:11:14;;;;;;;21.50;13.60;;;7.90;99.90;;;;;;5064884;28;20447;-69
2024/01/31 04:13:44;;;;;;;27.70;14.93;;;7.80;99.90;;;;;;5064390;28;20454;-67
2024/01/31 04:16:15;;;;;;;24.30;14.07;;;7.80;99.90;;;;;;5064788;28;21024;-67
2024/01/31 04:18:43;;;;;;;21.60;12.83;;;7.80;99.90;;;;;;5065808;28;21166;-67
2024/01/31 04:21:20;;;;;;;23.13;13.80;;;7.80;99.90;;;;;;5065229;28;20469;-68
2024/01/31 04:23:49;;;;;;;24.03;13.77;;;7.80;99.90;;;;;;5059751;28;20553;-67
2024/01/31 04:26:18;;;;;;;22.30;12.70;;;7.80;99.90;;;;;;5064807;28;20471;-68
2024/01/31 04:28:46;;;;;;;23.07;11.83;;;7.70;99.90;;;;;;5059475;28;20463;-68
2024/01/31 04:31:15;;;;;;;22.70;12.10;;;7.70;99.90;;;;;;5064078;28;20543;-68
2024/01/31 04:33:44;;;;;;;19.30;12.03;;;7.80;99.90;;;;;;5064645;28;20823;-68
2024/01/31 04:36:12;;;;;;;25.80;14.27;;;7.80;99.90;;;;;;5064040;28;20472;-67
2024/01/31 04:38:41;;;;;;;21.17;12.30;;;7.80;99.90;;;;;;5064575;28;20492;-67
2024/01/31 04:41:09;;;;;;;20.67;13.63;;;7.80;99.90;;;;;;5062031;28;21152;-67
2024/01/31 04:43:37;;;;;;;21.20;12.40;;;7.80;99.90;;;;;;5064688;28;20887;-68
2024/01/31 04:46:05;;;;;;;22.63;13.70;;;7.80;99.90;;;;;;5064687;28;20838;-66
2024/01/31 04:48:33;;;;;;;20.40;13.57;;;7.90;99.90;;;;;;5064436;28;21050;-68
2024/01/31 04:51:03;;;;;;;20.00;12.40;;;7.80;99.90;;;;;;5063487;28;20460;-67
2024/01/31 04:53:31;;;;;;;19.37;12.27;;;7.90;99.90;;;;;;5064610;28;20473;-68
2024/01/31 04:56:01;;;;;;;23.80;13.40;;;7.90;99.90;;;;;;5064983;28;20456;-67
2024/01/31 04:58:28;;;;;;;20.27;12.83;;;8.00;99.90;;;;;;5065395;28;20484;-69
2024/01/31 05:00:56;;;;;;;21.00;12.33;;;7.90;99.90;;;;;;5063864;28;20470;-68
2024/01/31 05:03:25;;;;;;;22.90;13.27;;;7.90;99.90;;;;;;5066994;28;20464;-67
2024/01/31 05:05:52;;;;;;;23.87;13.50;;;7.80;99.90;;;;;;5068770;28;20524;-68
2024/01/31 05:08:21;;;;;;;21.90;12.33;;;7.70;99.90;;;;;;5068556;28;20467;-68
2024/01/31 05:10:49;;;;;;;21.37;13.57;;;7.70;99.90;;;;;;5066698;28;20479;-67
2024/01/31 05:13:18;;;;;;;25.93;15.37;;;7.60;99.90;;;;;;5067974;28;20455;-69
2024/01/31 05:15:46;;;;;;;23.93;13.07;;;7.50;99.90;;;;;;5065188;28;20885;-67
2024/01/31 05:18:14;;;;;;;21.10;12.40;;;7.40;99.90;;;;;;5068334;28;20502;-69
2024/01/31 05:20:42;;;;;;;21.80;13.77;;;7.40;99.90;;;;;;5067956;28;20481;-68
2024/01/31 05:23:10;;;;;;;21.53;13.20;;;7.30;99.90;;;;;;5066980;28;20869;-68
2024/01/31 05:25:38;;;;;;;25.03;13.37;;;7.30;99.90;;;;;;5068989;28;20451;-69
2024/01/31 05:28:06;;;;;;;22.60;13.23;;;7.30;99.90;;;;;;5068198;28;21066;-69
2024/01/31 05:30:36;;;;;;;19.40;12.23;;;7.30;99.90;;;;;;5067553;28;20527;-69
2024/01/31 05:33:05;;;;;;;21.30;12.40;;;7.30;99.90;;;;;;5067450;28;20847;-68
2024/01/31 05:35:35;;;;;;;20.80;13.47;;;7.30;99.90;;;;;;5068079;28;20817;-70
2024/01/31 05:38:04;;;;;;;21.00;12.70;;;7.30;99.90;;;;;;5068199;28;21061;-70
2024/01/31 05:40:32;;;;;;;20.60;13.50;;;7.30;99.90;;;;;;5067590;28;20596;-70
2024/01/31 05:43:00;;;;;;;22.87;13.47;;;7.30;99.90;;;;;;5067321;28;20500;-69
2024/01/31 05:45:28;;;;;;;21.43;13.00;;;7.40;99.90;;;;;;5068113;28;20486;-68
2024/01/31 05:47:57;;;;;;;24.07;13.17;;;7.30;99.90;;;;;;5068069;28;20972;-69
2024/01/31 05:50:25;;;;;;;23.00;14.17;;;7.30;99.90;;;;;;5068263;28;20463;-69
2024/01/31 05:52:53;;;;;;;21.53;12.50;;;7.30;99.90;;;;;;5068430;28;20920;-69
2024/01/31 05:55:21;;;;;;;22.17;12.80;;;7.30;99.90;;;;;;5067648;28;20439;-69
2024/01/31 05:57:49;;;;;;;21.53;13.87;;;7.20;99.90;;;;;;5066560;28;20450;-69
2024/01/31 06:00:18;;;;;;;19.30;12.93;;;7.10;99.90;;;;;;5067872;28;20463;-68
2024/01/31 06:02:45;;;;;;;19.43;13.10;;;7.00;99.90;;;;;;5066532;28;20526;-69
2024/01/31 06:05:19;;;;;;;18.30;11.90;;;7.00;99.90;;;;;;5067461;28;20441;-72
2024/01/31 06:07:47;;;;;;;20.37;13.00;;;7.00;99.90;;;;;;5067481;28;20443;-69
2024/01/31 06:10:14;;;;;;;22.40;12.90;;;6.90;99.90;;;;;;5067396;28;20463;-69
2024/01/31 06:12:42;;;;;;;23.90;13.63;;;6.90;99.90;;;;;;5066810;28;20450;-69
2024/01/31 06:15:10;;;;;;;24.97;13.80;;;6.90;99.90;;;;;;5066964;28;20449;-68
2024/01/31 06:17:38;;;;;;;22.27;14.47;;;6.90;99.90;;;;;;5067359;28;20451;-69
2024/01/31 06:20:08;;;;;;;24.50;12.97;;;6.80;99.90;;;;;;5067072;28;20494;-69
2024/01/31 06:22:39;;;;;;;26.20;14.47;;;6.90;99.90;;;;;;5066688;28;21167;-70
2024/01/31 06:25:08;;;;;;;23.07;14.07;;;7.00;99.90;;;;;;5067546;28;20467;-69
2024/01/31 06:27:37;;;;;;;24.67;14.60;;;7.00;99.90;;;;;;5068047;28;20809;-69
2024/01/31 06:30:08;;;;;;;23.07;13.87;;;6.90;99.90;;;;;;5067118;28;20965;-69
2024/01/31 06:32:47;;;;;;;22.17;13.47;;;6.90;99.90;;;;;;5066656;28;20448;-69
2024/01/31 06:35:15;;;;;;;21.87;13.37;;;6.90;99.90;;;;;;5067429;28;20445;-68
2024/01/31 06:37:44;;;;;;;22.10;13.60;;;7.00;99.90;;;;;;5067993;28;20436;-68
2024/01/31 06:40:13;;;;;;;19.40;11.60;;;7.00;99.90;;;;;;5067613;28;21221;-68
2024/01/31 06:42:41;;;;;;;24.70;14.70;;;6.90;99.90;;;;;;5066653;28;20466;-68
2024/01/31 06:45:09;;;;;;;18.77;12.30;;;6.90;99.90;;;;;;5067168;28;20440;-68
2024/01/31 06:47:41;;;;;;;19.37;12.10;;;6.90;99.90;;;;;;5067403;28;20446;-68
2024/01/31 06:50:10;;;;;;;24.47;13.67;;;6.90;99.90;;;;;;5066465;28;21057;-69
2024/01/31 06:52:38;;;;;;;20.20;12.83;;;6.90;99.90;;;;;;5066304;28;20916;-68
2024/01/31 06:55:09;;;;;;;22.80;14.07;;;6.90;99.90;;;;;;5067052;28;20449;-68
2024/01/31 06:57:37;;;;;;;21.97;14.20;;;7.00;99.90;;;;;;5067419;28;20489;-69
2024/01/31 07:00:07;;;;;;;20.50;14.10;;;7.00;99.90;;;;;;5065336;28;20508;-67
2024/01/31 07:02:35;;;;;;;22.63;13.83;;;7.00;99.90;;;;;;5065750;28;20444;-68
2024/01/31 07:05:06;;;;;;;23.87;14.77;;;7.00;99.90;;;;;;5065783;28;20446;-68
2024/01/31 07:07:34;;;;;;;22.67;14.30;;;7.00;99.90;;;;;;5066836;28;20462;-68
2024/01/31 07:10:03;;;;;;;24.80;15.33;;;6.90;99.90;;;;;;5066450;28;20461;-68
2024/01/31 07:12:32;;;;;;;21.27;13.47;;;6.90;99.90;;;;;;5065336;28;20519;-69
2024/01/31 07:15:00;;;;;;;24.27;14.63;;;7.00;99.90;;;;;;5066173;28;21093;-68
2024/01/31 07:17:28;;;;;;;24.17;14.10;;;7.00;99.90;;;;;;5066470;28;20835;-69
2024/01/31 07:19:56;;;;;;;22.57;14.23;;;7.00;99.90;;;;;;5066487;28;20577;-68
2024/01/31 07:22:24;;;;;;;25.50;16.70;;;7.00;99.90;;;;;;5066219;28;20441;-68
2024/01/31 07:24:52;;;;;;;24.73;14.53;;;7.10;99.90;;;;;;5066557;28;20450;-68
2024/01/31 07:27:20;;;;;;;23.20;14.57;;;7.20;99.90;;;;;;5066163;28;20462;-68
2024/01/31 07:29:49;;;;;;;24.53;13.90;;;7.20;99.90;;;;;;5064560;28;20809;-68
2024/01/31 07:32:17;;;;;;;19.80;12.20;;;7.30;99.90;;;;;;5064887;28;20515;-68
2024/01/31 07:34:45;;;;;;;23.13;13.43;;;7.30;99.90;;;;;;5067769;28;20921;-68
2024/01/31 07:37:13;;;;;;;22.43;14.00;;;7.30;99.90;;;;;;5068003;28;20452;-68
2024/01/31 07:39:41;;;;;;;20.30;13.33;;;7.20;99.90;;;;;;5067729;28;20852;-68
2024/01/31 07:42:09;;;;;;;19.70;13.40;;;7.20;99.90;;;;;;5066712;28;20849;-69
2024/01/31 07:44:37;;;;;;;20.90;13.03;;;7.20;99.90;;;;;;5067847;28;20447;-69
2024/01/31 07:47:06;;;;;;;21.37;15.00;;;7.20;99.90;;;;;;5067969;28;20532;-68
2024/01/31 07:49:34;;;;;;;22.67;14.33;;;7.30;99.90;;;;;;5066511;28;21004;-68
2024/01/31 07:52:02;;;;;;;23.87;13.90;;;7.30;99.90;;;;;;5064446;28;20449;-68
2024/01/31 07:54:30;;;;;;;22.87;14.97;;;7.40;99.90;;;;;;5064488;28;20500;-68
2024/01/31 07:56:59;;;;;;;22.53;14.63;;;7.40;99.90;;;;;;5066191;28;20478;-69
2024/01/31 07:59:27;;;;;;;24.27;14.70;;;7.40;99.90;;;;;;5066244;28;20538;-69
2024/01/31 08:02:01;;;;;;;21.10;14.10;;;7.40;99.90;;;;;;5065510;28;20787;-68
2024/01/31 08:04:30;;;;;;;23.03;14.53;;;7.40;99.90;;;;;;5066196;28;20483;-68
2024/01/31 08:06:59;;;;;;;30.30;14.50;;;7.50;99.90;;;;;;5066143;28;20541;-68
2024/01/31 08:09:29;;;;;;;25.90;14.10;;;7.50;99.90;;;;;;5066403;28;20489;-68
2024/01/31 08:11:57;;;;;;;27.17;15.53;;;7.60;99.90;;;;;;5065677;28;20490;-68
2024/01/31 08:14:25;;;;;;;25.77;14.30;;;7.70;99.90;;;;;;5066432;28;21023;-67
2024/01/31 08:16:53;;;;;;;25.53;12.93;;;7.70;99.90;;;;;;5066137;28;20915;-68
2024/01/31 08:19:22;;;;;;;22.37;13.47;;;7.70;99.90;;;;;;5065073;28;20489;-68
2024/01/31 08:21:51;;;;;;;19.67;12.93;;;7.80;99.90;;;;;;5066001;28;20949;-69
2024/01/31 08:24:20;;;;;;;23.93;13.90;;;7.80;99.90;;;;;;5067502;28;20534;-67
2024/01/31 08:26:47;;;;;;;23.13;12.80;;;7.70;99.90;;;;;;5066986;28;20458;-68
2024/01/31 08:29:15;;;;;;;23.57;13.30;;;7.90;99.90;;;;;;5066814;28;20462;-68
2024/01/31 08:31:54;;;;;;;22.17;13.80;;;7.90;99.90;;;;;;5064447;28;20443;-68
2024/01/31 08:34:24;;;;;;;25.97;14.17;;;8.00;99.90;;;;;;5065823;28;20443;-69
2024/01/31 08:37:00;;;;;;;21.33;13.47;;;8.00;99.90;;;;;;5066576;28;20534;-69
2024/01/31 08:39:30;;;;;;;22.67;14.00;;;8.00;99.90;;;;;;5066066;28;20467;-69
2024/01/31 08:41:58;;;;;;;22.27;12.93;;;8.10;99.90;;;;;;5065461;28;21236;-69
2024/01/31 08:44:27;;;;;;;22.87;13.80;;;8.30;99.90;;;;;;5065916;28;20862;-68
2024/01/31 08:46:55;;;;;;;24.13;15.50;;;8.40;99.90;;;;;;5065875;28;20453;-68
2024/01/31 08:49:43;;;;;;;24.63;13.60;;;8.50;99.90;;;;;;5066530;28;20466;-68
2024/01/31 08:52:13;;;;;;;21.20;13.70;;;8.70;99.90;;;;;;5065164;28;20496;-68
2024/01/31 08:54:41;;;;;;;22.70;14.60;;;8.80;99.90;;;;;;5066868;28;20481;-68
2024/01/31 08:57:09;;;;;;;26.83;14.20;;;8.90;99.90;;;;;;5066563;28;20455;-68
2024/01/31 08:59:37;;;;;;;21.87;14.90;;;9.10;99.90;;;;;;5066933;28;20498;-68
2024/01/31 09:02:05;;;;;;;23.10;15.83;;;9.20;99.90;;;;;;5065852;28;20506;-69
2024/01/31 09:04:33;;;;;;;24.33;15.63;;;9.20;99.90;;;;;;5067046;28;20481;-68
2024/01/31 09:07:01;;;;;;;22.53;15.63;;;9.30;99.90;;;;;;5067028;28;20480;-68
2024/01/31 09:09:33;;;;;;;22.50;13.67;;;9.30;99.90;;;;;;5066602;28;21186;-69
2024/01/31 09:12:01;;;;;;;25.70;16.20;;;9.40;99.90;;;;;;5065117;28;21275;-68
2024/01/31 09:14:29;;;;;;;23.97;13.80;;;9.30;99.90;;;;;;5066729;28;20529;-68
2024/01/31 09:16:57;;;;;;;24.27;15.07;;;9.40;99.90;;;;;;5066382;28;20538;-68
2024/01/31 09:19:25;;;;;;;30.33;14.97;;;9.40;99.90;;;;;;5066678;28;20495;-68
2024/01/31 09:21:53;;;;;;;22.97;15.47;;;9.50;99.90;;;;;;5064951;28;20996;-68
2024/01/31 09:24:21;;;;;;;19.60;14.40;;;9.60;99.90;;;;;;5066587;28;20487;-68
2024/01/31 09:26:53;;;;;;;22.03;15.07;;;9.60;99.90;;;;;;5066533;28;21013;-68
2024/01/31 09:29:21;;;;;;;24.90;15.40;;;9.60;99.90;;;;;;5065835;28;20466;-68
2024/01/31 09:31:49;;;;;;;20.73;14.47;;;9.80;99.90;;;;;;5064896;28;20451;-68
2024/01/31 09:34:17;;;;;;;21.60;14.27;;;9.70;99.90;;;;;;5065398;28;20459;-68
2024/01/31 09:36:46;;;;;;;22.13;13.97;;;9.80;99.90;;;;;;5065568;28;20531;-68
2024/01/31 09:39:14;;;;;;;24.17;14.80;;;9.80;99.90;;;;;;5065468;28;20481;-68
2024/01/31 09:41:42;;;;;;;25.23;14.83;;;10.00;99.90;;;;;;5064935;28;20487;-70
2024/01/31 09:44:12;;;;;;;25.30;14.87;;;10.10;99.90;;;;;;5065737;28;20451;-69
2024/01/31 09:46:41;;;;;;;27.43;14.97;;;10.20;99.90;;;;;;5066070;28;20448;-67
2024/01/31 09:49:15;;;;;;;22.37;14.37;;;10.40;99.90;;;;;;5067031;28;20469;-68
2024/01/31 09:51:43;;;;;;;27.27;15.70;;;10.50;99.90;;;;;;5068702;28;20856;-69
2024/01/31 09:54:14;;;;;;;27.87;15.43;;;10.50;99.90;;;;;;5068207;28;20473;-68
2024/01/31 09:56:42;;;;;;;25.20;15.90;;;10.50;99.90;;;;;;5068317;28;20450;-68
2024/01/31 09:59:11;;;;;;;22.77;14.53;;;10.50;99.90;;;;;;5068877;28;20572;-68
2024/01/31 10:01:40;;;;;;;23.20;15.27;;;10.60;99.90;;;;;;5067986;28;20484;-68
2024/01/31 10:04:09;;;;;;;26.63;16.30;;;10.50;99.90;;;;;;5067960;28;20959;-68
2024/01/31 10:06:37;;;;;;;24.87;15.53;;;10.60;99.90;;;;;;5068735;28;20937;-68
2024/01/31 10:09:06;;;;;;;21.50;14.47;;;10.60;99.90;;;;;;5067968;28;21199;-69
2024/01/31 10:11:34;;;;;;;25.73;15.83;;;10.80;99.90;;;;;;5067099;28;20476;-69
2024/01/31 10:14:02;;;;;;;21.23;14.80;;;10.60;99.90;;;;;;5067754;28;20454;-69
2024/01/31 10:16:31;;;;;;;23.73;13.77;;;10.60;99.90;;;;;;5068937;28;20825;-69
2024/01/31 10:18:59;;;;;;;22.40;15.13;;;10.80;99.90;;;;;;5068414;28;20468;-69
2024/01/31 10:21:27;;;;;;;25.63;15.60;;;11.00;99.90;;;;;;5068261;28;20588;-69
2024/01/31 10:23:59;;;;;;;22.00;15.37;;;11.00;99.90;;;;;;5067839;28;20462;-70
2024/01/31 10:26:27;;;;;;;20.73;14.77;;;11.20;99.90;;;;;;5066803;28;20524;-69
2024/01/31 10:28:56;;;;;;;21.07;15.10;;;11.00;99.90;;;;;;5068325;28;20469;-69
2024/01/31 10:31:38;;;;;;;26.40;16.40;;;11.00;99.90;;;;;;5066797;28;20463;-68
2024/01/31 10:34:09;;;;;;;22.03;15.97;;;11.10;99.90;;;;;;5067545;28;20489;-69
2024/01/31 10:36:40;;;;;;;26.60;15.40;;;11.10;99.90;;;;;;5068071;28;20518;-68
2024/01/31 10:39:11;;;;;;;21.40;14.27;;;11.10;99.90;;;;;;5005172;28;21194;-69
2024/01/31 10:41:41;;;;;;;25.00;15.17;;;11.10;99.90;;;;;;5004399;28;20490;-68
2024/01/31 10:44:10;;;;;;;26.57;15.40;;;11.20;99.90;;;;;;5004850;28;20513;-69
2024/01/31 10:46:41;;;;;;;22.07;14.70;;;11.30;99.90;;;;;;5005556;28;20463;-69
2024/01/31 10:49:09;;;;;;;26.93;16.23;;;11.30;99.90;;;;;;5005184;28;20469;-71
2024/01/31 10:51:39;;;;;;;21.77;14.00;;;11.30;99.90;;;;;;5004836;28;20459;-69
2024/01/31 10:54:09;;;;;;;27.83;14.67;;;11.40;99.90;;;;;;5004886;28;20913;-69
2024/01/31 10:56:38;;;;;;;21.30;12.03;;;11.40;99.90;;;;;;5015392;28;20448;-70
2024/01/31 10:59:07;;;;;;;19.30;11.37;;;11.40;99.90;;;;;;5064399;28;21050;-71
2024/01/31 11:01:37;;;;;;;19.53;12.33;;;11.50;99.90;;;;;;5066652;28;20486;-70
2024/01/31 11:04:09;;;;;;;21.27;11.40;;;11.40;99.90;;;;;;5065881;28;20448;-69
2024/01/31 11:06:43;;;;;;;22.57;13.90;;;11.50;99.90;;;;;;5068673;28;21288;-68
2024/01/31 11:09:18;;;;;;;22.57;13.10;;;11.40;99.90;;;;;;5067748;28;20459;-69
2024/01/31 11:11:49;;;;;;;19.13;12.27;;;11.40;99.90;;;;;;5067959;28;20461;-69
2024/01/31 11:14:17;;;;;;;21.57;12.00;;;11.40;99.90;;;;;;5068022;28;20836;-69
2024/01/31 11:16:45;;;;;;;18.53;10.57;;;11.40;99.90;;;;;;5068676;28;21061;-69
2024/01/31 11:19:20;;;;;;;22.20;13.50;;;11.40;99.90;;;;;;5068471;28;20481;-69
2024/01/31 11:21:50;;;;;;;19.30;11.90;;;11.30;99.90;;;;;;5067664;28;20485;-69
2024/01/31 11:24:18;;;;;;;23.93;13.57;;;11.10;99.90;;;;;;5068077;28;20470;-69
2024/01/31 11:26:47;;;;;;;20.80;13.63;;;11.20;99.90;;;;;;5068416;28;20542;-70
2024/01/31 11:29:15;;;;;;;20.33;11.93;;;11.20;99.90;;;;;;5061757;28;21272;-71
2024/01/31 11:31:43;;;;;;;21.10;12.37;;;11.30;99.90;;;;;;5063534;28;20536;-72
2024/01/31 11:34:13;;;;;;;26.27;15.10;;;11.50;99.90;;;;;;5063675;28;20472;-69
2024/01/31 11:36:42;;;;;;;18.30;10.90;;;11.60;99.90;;;;;;5064158;28;20515;-70
2024/01/31 11:39:10;;;;;;;20.50;11.93;;;11.90;99.90;;;;;;5063196;28;20465;-70
2024/01/31 11:41:38;;;;;;;17.47;10.93;;;12.00;99.90;;;;;;5062747;28;20584;-69
2024/01/31 11:44:06;;;;;;;19.30;11.00;;;12.00;99.90;;;;;;5062774;28;20986;-69
2024/01/31 11:46:36;;;;;;;20.10;12.50;;;12.00;99.90;;;;;;5062686;28;20534;-70
2024/01/31 11:49:05;;;;;;;20.53;12.30;;;12.00;99.90;;;;;;5063893;28;20568;-70
2024/01/31 11:51:33;;;;;;;21.57;11.40;;;12.20;99.90;;;;;;5063023;28;20444;-71
2024/01/31 11:54:03;;;;;;;19.33;11.27;;;12.20;99.90;;;;;;5060750;28;20531;-70
2024/01/31 11:56:31;;;;;;;22.60;11.80;;;12.20;99.90;;;;;;5062423;28;20475;-70
2024/01/31 11:59:00;;;;;;;21.33;11.77;;;12.30;99.90;;;;;;5061605;28;20464;-69
2024/01/31 12:01:29;;;;;;;19.13;11.20;;;12.20;99.90;;;;;;5062595;28;20478;-70
2024/01/31 12:03:57;;;;;;;20.50;13.80;;;12.10;99.90;;;;;;5062598;28;20445;-71
2024/01/31 12:06:25;;;;;;;24.63;13.40;;;12.20;99.90;;;;;;5062110;28;20730;-70
2024/01/31 12:08:53;;;;;;;20.03;12.07;;;12.30;99.90;;;;;;5063283;28;20573;-69
2024/01/31 12:11:22;;;;;;;22.37;14.10;;;12.40;99.90;;;;;;5062480;28;20440;-69
2024/01/31 12:13:50;;;;;;;19.80;14.57;;;12.00;99.90;;;;;;5061937;28;20435;-71
2024/01/31 12:16:18;;;;;;;22.53;13.20;;;11.90;99.90;;;;;;5063911;28;20455;-70
2024/01/31 12:18:46;;;;;;;24.43;13.33;;;11.90;99.90;;;;;;5063744;28;20468;-70
2024/01/31 12:21:14;;;;;;;23.03;13.67;;;11.90;99.90;;;;;;5060768;28;20459;-70
2024/01/31 12:23:42;;;;;;;24.13;14.13;;;11.80;99.90;;;;;;5059921;28;20440;-71
2024/01/31 12:26:10;;;;;;;26.60;14.23;;;11.70;99.90;;;;;;5061430;28;20444;-71
2024/01/31 12:28:41;;;;;;;21.20;13.77;;;11.50;99.90;;;;;;5060551;28;20492;-69
2024/01/31 12:31:09;;;;;;;23.93;14.37;;;11.50;99.90;;;;;;5063698;28;20981;-70
2024/01/31 12:33:37;;;;;;;19.80;13.63;;;11.70;99.90;;;;;;5062538;28;20498;-73
2024/01/31 12:36:06;;;;;;;22.90;13.23;;;11.90;99.90;;;;;;5064513;28;20441;-71
2024/01/31 12:38:37;;;;;;;22.50;13.63;;;11.90;99.90;;;;;;5062492;28;20491;-69
2024/01/31 12:41:06;;;;;;;24.80;14.00;;;11.90;99.90;;;;;;5063958;28;20438;-71
2024/01/31 12:43:36;;;;;;;22.40;15.00;;;11.80;99.90;;;;;;5064311;28;20483;-71